Terminal Aerodrome Forecast
Issued by NWS Central Illinois

Home | Current Version | Previous Version | Text Only | Print | Product List | Glossary On
Versions: 1 2 3 4 5 6 7 8 9 10 11 12 13 14 15 16 17 18 19 20 21 22
870
FTUS43 KILX 181737
TAFPIA
TAF
KPIA 181737Z 1818/1918 24012G20KT P6SM OVC025
      TEMPO 1818/1820 BKN015 OVC025
     FM182100 23010KT P6SM SKC
     FM191400 27007KT P6SM SKC=

USA.gov is the U.S. government's official web portal to all federal, state and local government web resources and services.